sensor_id;sensor_type;location;lat;lon;timestamp;P1;durP1;ratioP1;P2;durP2;ratioP2
36391;SDS011;22639;42.690;23.356;2023-07-30T00:02:14;4.88;;;4.00;;
36391;SDS011;22639;42.690;23.356;2023-07-30T00:04:39;3.85;;;3.45;;
36391;SDS011;22639;42.690;23.356;2023-07-30T00:07:05;4.50;;;3.60;;
36391;SDS011;22639;42.690;23.356;2023-07-30T00:09:30;5.70;;;4.20;;
36391;SDS011;22639;42.690;23.356;2023-07-30T00:11:56;5.43;;;4.00;;
36391;SDS011;22639;42.690;23.356;2023-07-30T00:14:21;4.38;;;3.85;;
36391;SDS011;22639;42.690;23.356;2023-07-30T00:16:46;3.83;;;3.53;;
36391;SDS011;22639;42.690;23.356;2023-07-30T00:19:11;3.88;;;3.50;;
36391;SDS011;22639;42.690;23.356;2023-07-30T00:21:36;6.13;;;3.20;;
36391;SDS011;22639;42.690;23.356;2023-07-30T00:24:02;3.75;;;3.28;;
36391;SDS011;22639;42.690;23.356;2023-07-30T00:26:27;3.60;;;3.25;;
36391;SDS011;22639;42.690;23.356;2023-07-30T00:28:53;5.43;;;3.90;;
36391;SDS011;22639;42.690;23.356;2023-07-30T00:31:18;3.60;;;3.30;;
36391;SDS011;22639;42.690;23.356;2023-07-30T00:33:44;4.05;;;3.35;;
36391;SDS011;22639;42.690;23.356;2023-07-30T00:36:09;5.22;;;3.83;;
36391;SDS011;22639;42.690;23.356;2023-07-30T00:38:34;7.28;;;3.55;;
36391;SDS011;22639;42.690;23.356;2023-07-30T00:41:01;5.15;;;3.58;;
36391;SDS011;22639;42.690;23.356;2023-07-30T00:43:26;6.20;;;3.58;;
36391;SDS011;22639;42.690;23.356;2023-07-30T00:45:51;3.70;;;3.40;;
36391;SDS011;22639;42.690;23.356;2023-07-30T00:48:17;3.40;;;3.10;;
36391;SDS011;22639;42.690;23.356;2023-07-30T00:50:42;3.15;;;2.88;;
36391;SDS011;22639;42.690;23.356;2023-07-30T00:53:08;3.30;;;3.10;;
36391;SDS011;22639;42.690;23.356;2023-07-30T00:55:34;3.22;;;2.92;;
36391;SDS011;22639;42.690;23.356;2023-07-30T00:58:00;4.97;;;3.20;;
36391;SDS011;22639;42.690;23.356;2023-07-30T01:00:25;3.95;;;3.47;;
36391;SDS011;22639;42.690;23.356;2023-07-30T01:02:51;4.22;;;3.58;;
36391;SDS011;22639;42.690;23.356;2023-07-30T01:05:17;4.80;;;3.60;;
36391;SDS011;22639;42.690;23.356;2023-07-30T01:07:42;6.75;;;4.20;;
36391;SDS011;22639;42.690;23.356;2023-07-30T01:10:08;6.05;;;3.20;;
36391;SDS011;22639;42.690;23.356;2023-07-30T01:12:33;3.90;;;3.55;;
36391;SDS011;22639;42.690;23.356;2023-07-30T01:14:59;4.78;;;3.60;;
36391;SDS011;22639;42.690;23.356;2023-07-30T01:17:25;4.18;;;3.25;;
36391;SDS011;22639;42.690;23.356;2023-07-30T01:19:52;3.95;;;3.55;;
36391;SDS011;22639;42.690;23.356;2023-07-30T01:22:19;4.53;;;3.65;;
36391;SDS011;22639;42.690;23.356;2023-07-30T01:24:45;4.88;;;3.67;;
36391;SDS011;22639;42.690;23.356;2023-07-30T01:27:12;5.03;;;3.75;;
36391;SDS011;22639;42.690;23.356;2023-07-30T01:30:22;4.55;;;3.65;;
36391;SDS011;22639;42.690;23.356;2023-07-30T01:32:27;3.78;;;3.40;;
36391;SDS011;22639;42.690;23.356;2023-07-30T01:34:54;4.25;;;3.85;;
36391;SDS011;22639;42.690;23.356;2023-07-30T01:37:20;3.80;;;3.40;;
36391;SDS011;22639;42.690;23.356;2023-07-30T01:39:47;4.78;;;3.55;;
36391;SDS011;22639;42.690;23.356;2023-07-30T01:42:13;3.97;;;3.45;;
36391;SDS011;22639;42.690;23.356;2023-07-30T01:44:38;3.90;;;3.42;;
36391;SDS011;22639;42.690;23.356;2023-07-30T01:47:03;5.00;;;4.50;;
36391;SDS011;22639;42.690;23.356;2023-07-30T01:49:29;3.33;;;3.03;;
36391;SDS011;22639;42.690;23.356;2023-07-30T01:51:54;4.07;;;3.67;;
36391;SDS011;22639;42.690;23.356;2023-07-30T01:54:19;4.57;;;3.30;;
36391;SDS011;22639;42.690;23.356;2023-07-30T01:56:44;4.07;;;3.40;;
36391;SDS011;22639;42.690;23.356;2023-07-30T01:59:09;4.18;;;3.35;;
36391;SDS011;22639;42.690;23.356;2023-07-30T02:01:35;3.70;;;3.35;;
36391;SDS011;22639;42.690;23.356;2023-07-30T02:04:00;3.65;;;3.33;;
36391;SDS011;22639;42.690;23.356;2023-07-30T02:06:25;4.00;;;3.40;;
36391;SDS011;22639;42.690;23.356;2023-07-30T02:08:50;4.20;;;3.80;;
36391;SDS011;22639;42.690;23.356;2023-07-30T02:11:16;3.40;;;3.10;;
36391;SDS011;22639;42.690;23.356;2023-07-30T02:13:41;3.83;;;3.40;;
36391;SDS011;22639;42.690;23.356;2023-07-30T02:16:07;3.85;;;3.55;;
36391;SDS011;22639;42.690;23.356;2023-07-30T02:18:32;3.78;;;3.10;;
36391;SDS011;22639;42.690;23.356;2023-07-30T02:20:58;5.10;;;3.63;;
36391;SDS011;22639;42.690;23.356;2023-07-30T02:23:23;6.90;;;3.80;;
36391;SDS011;22639;42.690;23.356;2023-07-30T02:25:48;3.50;;;3.17;;
36391;SDS011;22639;42.690;23.356;2023-07-30T02:28:13;7.20;;;3.80;;
36391;SDS011;22639;42.690;23.356;2023-07-30T02:30:38;3.60;;;3.30;;
36391;SDS011;22639;42.690;23.356;2023-07-30T02:33:04;3.40;;;3.10;;
36391;SDS011;22639;42.690;23.356;2023-07-30T02:35:29;3.95;;;3.15;;
36391;SDS011;22639;42.690;23.356;2023-07-30T02:37:54;4.65;;;3.80;;
36391;SDS011;22639;42.690;23.356;2023-07-30T02:40:19;4.18;;;3.38;;
36391;SDS011;22639;42.690;23.356;2023-07-30T02:42:45;5.05;;;3.53;;
36391;SDS011;22639;42.690;23.356;2023-07-30T02:45:10;3.88;;;3.30;;
36391;SDS011;22639;42.690;23.356;2023-07-30T02:47:35;4.10;;;3.67;;
36391;SDS011;22639;42.690;23.356;2023-07-30T02:50:01;3.88;;;3.58;;
36391;SDS011;22639;42.690;23.356;2023-07-30T02:52:26;5.50;;;4.07;;
36391;SDS011;22639;42.690;23.356;2023-07-30T02:54:52;3.75;;;3.35;;
36391;SDS011;22639;42.690;23.356;2023-07-30T02:57:17;4.28;;;3.60;;
36391;SDS011;22639;42.690;23.356;2023-07-30T02:59:42;4.82;;;3.25;;
36391;SDS011;22639;42.690;23.356;2023-07-30T03:02:07;5.38;;;4.03;;
36391;SDS011;22639;42.690;23.356;2023-07-30T03:04:33;4.38;;;3.92;;
36391;SDS011;22639;42.690;23.356;2023-07-30T03:06:58;3.95;;;3.60;;
36391;SDS011;22639;42.690;23.356;2023-07-30T03:09:24;5.03;;;3.95;;
36391;SDS011;22639;42.690;23.356;2023-07-30T03:11:49;3.78;;;3.45;;
36391;SDS011;22639;42.690;23.356;2023-07-30T03:14:15;4.90;;;3.65;;
36391;SDS011;22639;42.690;23.356;2023-07-30T03:16:40;4.47;;;3.85;;
36391;SDS011;22639;42.690;23.356;2023-07-30T03:19:05;9.88;;;4.15;;
36391;SDS011;22639;42.690;23.356;2023-07-30T03:21:30;4.15;;;3.75;;
36391;SDS011;22639;42.690;23.356;2023-07-30T03:23:56;4.57;;;4.13;;
36391;SDS011;22639;42.690;23.356;2023-07-30T03:26:21;3.60;;;3.25;;
36391;SDS011;22639;42.690;23.356;2023-07-30T03:28:46;4.88;;;4.35;;
36391;SDS011;22639;42.690;23.356;2023-07-30T03:31:11;3.72;;;3.42;;
36391;SDS011;22639;42.690;23.356;2023-07-30T03:33:37;3.67;;;3.08;;
36391;SDS011;22639;42.690;23.356;2023-07-30T03:36:04;3.55;;;3.25;;
36391;SDS011;22639;42.690;23.356;2023-07-30T03:38:29;4.22;;;3.65;;
36391;SDS011;22639;42.690;23.356;2023-07-30T03:40:54;6.22;;;4.18;;
36391;SDS011;22639;42.690;23.356;2023-07-30T03:43:20;5.35;;;3.40;;
36391;SDS011;22639;42.690;23.356;2023-07-30T03:45:45;4.43;;;3.78;;
36391;SDS011;22639;42.690;23.356;2023-07-30T03:48:10;5.63;;;3.25;;
36391;SDS011;22639;42.690;23.356;2023-07-30T03:50:35;4.65;;;4.13;;
36391;SDS011;22639;42.690;23.356;2023-07-30T03:53:01;4.10;;;3.25;;
36391;SDS011;22639;42.690;23.356;2023-07-30T03:55:26;4.75;;;3.50;;
36391;SDS011;22639;42.690;23.356;2023-07-30T03:57:51;3.75;;;3.45;;
36391;SDS011;22639;42.690;23.356;2023-07-30T04:00:16;3.85;;;3.30;;
36391;SDS011;22639;42.690;23.356;2023-07-30T04:02:42;3.35;;;3.00;;
36391;SDS011;22639;42.690;23.356;2023-07-30T04:05:10;4.13;;;3.70;;
36391;SDS011;22639;42.690;23.356;2023-07-30T04:07:35;3.60;;;3.30;;
36391;SDS011;22639;42.690;23.356;2023-07-30T04:10:00;4.50;;;2.78;;
36391;SDS011;22639;42.690;23.356;2023-07-30T04:12:26;3.88;;;3.45;;
36391;SDS011;22639;42.690;23.356;2023-07-30T04:14:51;4.65;;;3.65;;
36391;SDS011;22639;42.690;23.356;2023-07-30T04:17:16;4.05;;;3.65;;
36391;SDS011;22639;42.690;23.356;2023-07-30T04:19:41;3.80;;;3.42;;
36391;SDS011;22639;42.690;23.356;2023-07-30T04:22:07;3.85;;;3.47;;
36391;SDS011;22639;42.690;23.356;2023-07-30T04:24:32;4.32;;;3.80;;
36391;SDS011;22639;42.690;23.356;2023-07-30T04:26:57;4.22;;;3.10;;
36391;SDS011;22639;42.690;23.356;2023-07-30T04:29:22;3.65;;;3.35;;
36391;SDS011;22639;42.690;23.356;2023-07-30T04:31:48;3.67;;;3.22;;
36391;SDS011;22639;42.690;23.356;2023-07-30T04:34:13;3.35;;;3.05;;
36391;SDS011;22639;42.690;23.356;2023-07-30T04:36:38;3.90;;;3.40;;
36391;SDS011;22639;42.690;23.356;2023-07-30T04:39:04;3.78;;;3.45;;
36391;SDS011;22639;42.690;23.356;2023-07-30T04:41:29;3.53;;;3.13;;
36391;SDS011;22639;42.690;23.356;2023-07-30T04:43:54;4.38;;;3.38;;
36391;SDS011;22639;42.690;23.356;2023-07-30T04:46:19;3.80;;;3.28;;
36391;SDS011;22639;42.690;23.356;2023-07-30T04:48:45;3.97;;;3.63;;
36391;SDS011;22639;42.690;23.356;2023-07-30T04:51:10;5.05;;;4.65;;
36391;SDS011;22639;42.690;23.356;2023-07-30T04:53:35;3.25;;;3.00;;
36391;SDS011;22639;42.690;23.356;2023-07-30T04:56:00;3.55;;;3.25;;
36391;SDS011;22639;42.690;23.356;2023-07-30T04:58:25;3.83;;;3.20;;
36391;SDS011;22639;42.690;23.356;2023-07-30T05:00:51;3.60;;;3.28;;
36391;SDS011;22639;42.690;23.356;2023-07-30T05:03:16;3.33;;;3.03;;
36391;SDS011;22639;42.690;23.356;2023-07-30T05:05:41;3.83;;;3.42;;
36391;SDS011;22639;42.690;23.356;2023-07-30T05:08:07;3.88;;;3.58;;
36391;SDS011;22639;42.690;23.356;2023-07-30T05:10:32;3.33;;;3.13;;
36391;SDS011;22639;42.690;23.356;2023-07-30T05:12:57;3.83;;;3.53;;
36391;SDS011;22639;42.690;23.356;2023-07-30T05:15:23;5.90;;;4.47;;
36391;SDS011;22639;42.690;23.356;2023-07-30T05:17:48;4.40;;;4.00;;
36391;SDS011;22639;42.690;23.356;2023-07-30T05:20:13;4.60;;;3.75;;
36391;SDS011;22639;42.690;23.356;2023-07-30T05:22:38;4.40;;;3.78;;
36391;SDS011;22639;42.690;23.356;2023-07-30T05:25:04;4.30;;;3.85;;
36391;SDS011;22639;42.690;23.356;2023-07-30T05:27:29;6.35;;;3.90;;
36391;SDS011;22639;42.690;23.356;2023-07-30T05:29:56;4.13;;;3.72;;
36391;SDS011;22639;42.690;23.356;2023-07-30T05:32:22;4.07;;;3.78;;
36391;SDS011;22639;42.690;23.356;2023-07-30T05:34:47;4.00;;;3.70;;
36391;SDS011;22639;42.690;23.356;2023-07-30T05:37:12;4.70;;;3.33;;
36391;SDS011;22639;42.690;23.356;2023-07-30T05:39:37;4.95;;;3.55;;
36391;SDS011;22639;42.690;23.356;2023-07-30T05:42:03;5.13;;;3.63;;
36391;SDS011;22639;42.690;23.356;2023-07-30T05:44:28;4.50;;;4.10;;
36391;SDS011;22639;42.690;23.356;2023-07-30T05:46:53;4.05;;;3.75;;
36391;SDS011;22639;42.690;23.356;2023-07-30T05:49:18;4.20;;;3.90;;
36391;SDS011;22639;42.690;23.356;2023-07-30T05:51:44;4.68;;;3.90;;
36391;SDS011;22639;42.690;23.356;2023-07-30T05:54:09;4.35;;;3.95;;
36391;SDS011;22639;42.690;23.356;2023-07-30T05:56:35;4.30;;;4.00;;
36391;SDS011;22639;42.690;23.356;2023-07-30T05:59:00;5.07;;;3.80;;
36391;SDS011;22639;42.690;23.356;2023-07-30T06:01:25;5.40;;;4.50;;
36391;SDS011;22639;42.690;23.356;2023-07-30T06:03:50;4.47;;;4.07;;
36391;SDS011;22639;42.690;23.356;2023-07-30T06:06:16;4.70;;;4.35;;
36391;SDS011;22639;42.690;23.356;2023-07-30T06:08:41;4.97;;;4.00;;
36391;SDS011;22639;42.690;23.356;2023-07-30T06:11:07;4.57;;;4.18;;
36391;SDS011;22639;42.690;23.356;2023-07-30T06:13:33;5.00;;;4.50;;
36391;SDS011;22639;42.690;23.356;2023-07-30T06:15:59;5.32;;;4.25;;
36391;SDS011;22639;42.690;23.356;2023-07-30T06:18:24;4.32;;;3.97;;
36391;SDS011;22639;42.690;23.356;2023-07-30T06:20:49;4.72;;;4.35;;
36391;SDS011;22639;42.690;23.356;2023-07-30T06:23:15;5.47;;;4.40;;
36391;SDS011;22639;42.690;23.356;2023-07-30T06:25:40;5.17;;;3.87;;
36391;SDS011;22639;42.690;23.356;2023-07-30T06:28:05;4.30;;;3.87;;
36391;SDS011;22639;42.690;23.356;2023-07-30T06:30:33;4.82;;;4.38;;
36391;SDS011;22639;42.690;23.356;2023-07-30T06:32:59;4.03;;;3.67;;
36391;SDS011;22639;42.690;23.356;2023-07-30T06:35:24;4.25;;;3.85;;
36391;SDS011;22639;42.690;23.356;2023-07-30T06:37:50;3.53;;;3.22;;
36391;SDS011;22639;42.690;23.356;2023-07-30T06:40:15;4.15;;;3.75;;
36391;SDS011;22639;42.690;23.356;2023-07-30T06:42:41;4.40;;;4.00;;
36391;SDS011;22639;42.690;23.356;2023-07-30T06:45:06;4.68;;;4.20;;
36391;SDS011;22639;42.690;23.356;2023-07-30T06:47:32;5.22;;;3.80;;
36391;SDS011;22639;42.690;23.356;2023-07-30T06:49:57;4.35;;;3.78;;
36391;SDS011;22639;42.690;23.356;2023-07-30T06:52:22;4.25;;;3.95;;
36391;SDS011;22639;42.690;23.356;2023-07-30T06:54:47;4.28;;;3.80;;
36391;SDS011;22639;42.690;23.356;2023-07-30T06:57:13;3.78;;;3.40;;
36391;SDS011;22639;42.690;23.356;2023-07-30T06:59:38;4.50;;;3.38;;
36391;SDS011;22639;42.690;23.356;2023-07-30T07:02:03;3.93;;;3.57;;
36391;SDS011;22639;42.690;23.356;2023-07-30T07:04:30;4.32;;;3.42;;
36391;SDS011;22639;42.690;23.356;2023-07-30T07:06:55;3.53;;;3.22;;
36391;SDS011;22639;42.690;23.356;2023-07-30T07:09:20;5.00;;;3.50;;
36391;SDS011;22639;42.690;23.356;2023-07-30T07:11:45;4.17;;;3.50;;
36391;SDS011;22639;42.690;23.356;2023-07-30T07:14:11;4.27;;;3.87;;
36391;SDS011;22639;42.690;23.356;2023-07-30T07:16:36;7.80;;;3.83;;
36391;SDS011;22639;42.690;23.356;2023-07-30T07:19:01;3.80;;;3.50;;
36391;SDS011;22639;42.690;23.356;2023-07-30T07:21:27;3.70;;;3.40;;
36391;SDS011;22639;42.690;23.356;2023-07-30T07:23:52;4.40;;;3.37;;
36391;SDS011;22639;42.690;23.356;2023-07-30T07:26:18;3.17;;;2.97;;
36391;SDS011;22639;42.690;23.356;2023-07-30T07:28:43;5.20;;;3.25;;
36391;SDS011;22639;42.690;23.356;2023-07-30T07:31:08;4.20;;;3.80;;
36391;SDS011;22639;42.690;23.356;2023-07-30T07:33:34;3.80;;;3.22;;
36391;SDS011;22639;42.690;23.356;2023-07-30T07:36:03;3.75;;;3.00;;
36391;SDS011;22639;42.690;23.356;2023-07-30T07:38:28;4.70;;;3.40;;
36391;SDS011;22639;42.690;23.356;2023-07-30T07:40:53;3.97;;;3.33;;
36391;SDS011;22639;42.690;23.356;2023-07-30T07:43:19;5.10;;;3.38;;
36391;SDS011;22639;42.690;23.356;2023-07-30T07:45:44;4.00;;;3.60;;
36391;SDS011;22639;42.690;23.356;2023-07-30T07:48:09;3.63;;;3.33;;
36391;SDS011;22639;42.690;23.356;2023-07-30T07:50:34;4.40;;;3.60;;
36391;SDS011;22639;42.690;23.356;2023-07-30T07:53:00;3.57;;;3.20;;
36391;SDS011;22639;42.690;23.356;2023-07-30T07:55:25;7.55;;;3.65;;
36391;SDS011;22639;42.690;23.356;2023-07-30T07:57:50;5.15;;;3.53;;
36391;SDS011;22639;42.690;23.356;2023-07-30T08:00:17;4.00;;;3.70;;
36391;SDS011;22639;42.690;23.356;2023-07-30T08:02:43;3.50;;;3.25;;
36391;SDS011;22639;42.690;23.356;2023-07-30T08:05:08;4.82;;;3.58;;
36391;SDS011;22639;42.690;23.356;2023-07-30T08:07:34;4.05;;;3.65;;
36391;SDS011;22639;42.690;23.356;2023-07-30T08:09:59;4.88;;;4.38;;
36391;SDS011;22639;42.690;23.356;2023-07-30T08:12:24;6.13;;;3.77;;
36391;SDS011;22639;42.690;23.356;2023-07-30T08:14:50;4.07;;;3.77;;
36391;SDS011;22639;42.690;23.356;2023-07-30T08:17:15;4.05;;;3.75;;
36391;SDS011;22639;42.690;23.356;2023-07-30T08:19:41;4.18;;;3.47;;
36391;SDS011;22639;42.690;23.356;2023-07-30T08:22:06;3.85;;;3.55;;
36391;SDS011;22639;42.690;23.356;2023-07-30T08:24:31;3.50;;;3.30;;
36391;SDS011;22639;42.690;23.356;2023-07-30T08:26:57;3.10;;;2.90;;
36391;SDS011;22639;42.690;23.356;2023-07-30T08:29:22;3.60;;;3.30;;
36391;SDS011;22639;42.690;23.356;2023-07-30T08:31:47;3.83;;;3.53;;
36391;SDS011;22639;42.690;23.356;2023-07-30T08:34:13;3.80;;;3.50;;
36391;SDS011;22639;42.690;23.356;2023-07-30T08:36:38;4.18;;;3.60;;
36391;SDS011;22639;42.690;23.356;2023-07-30T08:39:03;3.50;;;3.30;;
36391;SDS011;22639;42.690;23.356;2023-07-30T08:41:29;3.63;;;3.42;;
36391;SDS011;22639;42.690;23.356;2023-07-30T08:43:54;3.80;;;3.53;;
36391;SDS011;22639;42.690;23.356;2023-07-30T08:46:19;3.20;;;3.00;;
36391;SDS011;22639;42.690;23.356;2023-07-30T08:48:44;3.35;;;3.05;;
36391;SDS011;22639;42.690;23.356;2023-07-30T08:51:10;3.30;;;3.00;;
36391;SDS011;22639;42.690;23.356;2023-07-30T08:53:36;3.78;;;3.55;;
36391;SDS011;22639;42.690;23.356;2023-07-30T08:56:02;3.13;;;2.92;;
36391;SDS011;22639;42.690;23.356;2023-07-30T08:58:27;3.92;;;3.08;;
36391;SDS011;22639;42.690;23.356;2023-07-30T09:00:53;3.25;;;3.05;;
36391;SDS011;22639;42.690;23.356;2023-07-30T09:03:20;4.32;;;3.28;;
36391;SDS011;22639;42.690;23.356;2023-07-30T09:05:47;3.97;;;3.58;;
36391;SDS011;22639;42.690;23.356;2023-07-30T09:08:12;2.72;;;2.53;;
36391;SDS011;22639;42.690;23.356;2023-07-30T09:10:37;3.42;;;3.13;;
36391;SDS011;22639;42.690;23.356;2023-07-30T09:13:03;3.03;;;2.83;;
36391;SDS011;22639;42.690;23.356;2023-07-30T09:15:38;3.10;;;2.90;;
36391;SDS011;22639;42.690;23.356;2023-07-30T09:18:06;3.90;;;3.40;;
36391;SDS011;22639;42.690;23.356;2023-07-30T09:20:37;3.10;;;2.90;;
36391;SDS011;22639;42.690;23.356;2023-07-30T09:23:02;4.97;;;3.30;;
36391;SDS011;22639;42.690;23.356;2023-07-30T09:25:28;4.30;;;3.15;;
36391;SDS011;22639;42.690;23.356;2023-07-30T09:27:53;3.13;;;2.92;;
36391;SDS011;22639;42.690;23.356;2023-07-30T09:30:24;4.85;;;3.15;;
36391;SDS011;22639;42.690;23.356;2023-07-30T09:32:54;3.40;;;3.10;;
36391;SDS011;22639;42.690;23.356;2023-07-30T09:35:19;3.00;;;2.80;;
36391;SDS011;22639;42.690;23.356;2023-07-30T09:37:45;3.45;;;2.58;;
36391;SDS011;22639;42.690;23.356;2023-07-30T09:40:11;3.22;;;3.03;;
36391;SDS011;22639;42.690;23.356;2023-07-30T09:42:42;2.83;;;2.63;;
36391;SDS011;22639;42.690;23.356;2023-07-30T09:45:08;2.60;;;2.40;;
36391;SDS011;22639;42.690;23.356;2023-07-30T09:47:44;3.00;;;2.80;;
36391;SDS011;22639;42.690;23.356;2023-07-30T09:50:10;2.47;;;2.28;;
36391;SDS011;22639;42.690;23.356;2023-07-30T09:52:36;3.20;;;2.95;;
36391;SDS011;22639;42.690;23.356;2023-07-30T09:55:01;3.20;;;3.00;;
36391;SDS011;22639;42.690;23.356;2023-07-30T09:57:27;3.58;;;3.28;;
36391;SDS011;22639;42.690;23.356;2023-07-30T09:59:52;4.05;;;3.20;;
36391;SDS011;22639;42.690;23.356;2023-07-30T10:02:18;2.83;;;2.63;;
36391;SDS011;22639;42.690;23.356;2023-07-30T10:04:44;3.70;;;3.40;;
36391;SDS011;22639;42.690;23.356;2023-07-30T10:07:13;3.00;;;2.80;;
36391;SDS011;22639;42.690;23.356;2023-07-30T10:09:40;3.50;;;3.15;;
36391;SDS011;22639;42.690;23.356;2023-07-30T10:12:11;3.33;;;3.13;;
36391;SDS011;22639;42.690;23.356;2023-07-30T10:14:38;4.47;;;3.33;;
36391;SDS011;22639;42.690;23.356;2023-07-30T10:17:03;3.47;;;3.25;;
36391;SDS011;22639;42.690;23.356;2023-07-30T10:19:28;2.95;;;2.75;;
36391;SDS011;22639;42.690;23.356;2023-07-30T10:21:58;3.00;;;2.80;;
36391;SDS011;22639;42.690;23.356;2023-07-30T10:24:25;4.60;;;3.45;;
36391;SDS011;22639;42.690;23.356;2023-07-30T10:26:50;3.88;;;3.55;;
36391;SDS011;22639;42.690;23.356;2023-07-30T10:29:19;3.70;;;3.40;;
36391;SDS011;22639;42.690;23.356;2023-07-30T10:31:48;3.63;;;3.38;;
36391;SDS011;22639;42.690;23.356;2023-07-30T10:34:14;3.22;;;2.92;;
36391;SDS011;22639;42.690;23.356;2023-07-30T10:41:39;4.75;;;3.83;;
36391;SDS011;22639;42.690;23.356;2023-07-30T10:44:05;3.72;;;3.42;;
36391;SDS011;22639;42.690;23.356;2023-07-30T10:46:30;3.30;;;3.00;;
36391;SDS011;22639;42.690;23.356;2023-07-30T10:48:55;3.77;;;3.47;;
36391;SDS011;22639;42.690;23.356;2023-07-30T10:51:20;3.87;;;3.47;;
36391;SDS011;22639;42.690;23.356;2023-07-30T10:53:46;4.13;;;3.38;;
36391;SDS011;22639;42.690;23.356;2023-07-30T10:56:12;4.00;;;3.38;;
36391;SDS011;22639;42.690;23.356;2023-07-30T10:58:38;3.65;;;3.20;;
36391;SDS011;22639;42.690;23.356;2023-07-30T11:01:03;3.75;;;3.45;;
36391;SDS011;22639;42.690;23.356;2023-07-30T11:03:29;3.70;;;3.40;;
36391;SDS011;22639;42.690;23.356;2023-07-30T11:05:57;3.78;;;3.47;;
36391;SDS011;22639;42.690;23.356;2023-07-30T11:08:32;3.95;;;3.65;;
36391;SDS011;22639;42.690;23.356;2023-07-30T11:10:58;3.60;;;3.30;;
36391;SDS011;22639;42.690;23.356;2023-07-30T11:13:23;3.30;;;3.10;;
36391;SDS011;22639;42.690;23.356;2023-07-30T11:15:48;5.45;;;3.15;;
36391;SDS011;22639;42.690;23.356;2023-07-30T11:18:13;3.67;;;3.37;;
36391;SDS011;22639;42.690;23.356;2023-07-30T11:20:39;3.45;;;3.15;;
36391;SDS011;22639;42.690;23.356;2023-07-30T11:23:18;3.88;;;3.58;;
36391;SDS011;22639;42.690;23.356;2023-07-30T11:25:47;3.78;;;3.20;;
36391;SDS011;22639;42.690;23.356;2023-07-30T11:28:13;4.47;;;4.07;;
36391;SDS011;22639;42.690;23.356;2023-07-30T11:30:39;3.90;;;3.60;;
36391;SDS011;22639;42.690;23.356;2023-07-30T11:33:04;3.35;;;3.15;;
36391;SDS011;22639;42.690;23.356;2023-07-30T11:35:29;4.18;;;3.88;;
36391;SDS011;22639;42.690;23.356;2023-07-30T11:37:55;4.18;;;3.53;;
36391;SDS011;22639;42.690;23.356;2023-07-30T11:40:22;3.60;;;3.30;;
36391;SDS011;22639;42.690;23.356;2023-07-30T11:42:47;4.10;;;3.70;;
36391;SDS011;22639;42.690;23.356;2023-07-30T11:47:45;5.13;;;4.72;;
36391;SDS011;22639;42.690;23.356;2023-07-30T11:50:10;5.82;;;4.70;;
36391;SDS011;22639;42.690;23.356;2023-07-30T11:52:35;5.03;;;4.43;;
36391;SDS011;22639;42.690;23.356;2023-07-30T11:55:03;4.38;;;3.97;;
36391;SDS011;22639;42.690;23.356;2023-07-30T11:57:35;4.85;;;4.45;;
36391;SDS011;22639;42.690;23.356;2023-07-30T12:00:00;4.43;;;4.03;;
36391;SDS011;22639;42.690;23.356;2023-07-30T12:02:25;5.20;;;4.07;;
36391;SDS011;22639;42.690;23.356;2023-07-30T12:04:51;4.30;;;4.00;;
36391;SDS011;22639;42.690;23.356;2023-07-30T12:07:25;4.15;;;3.85;;
36391;SDS011;22639;42.690;23.356;2023-07-30T12:09:50;4.90;;;4.50;;
36391;SDS011;22639;42.690;23.356;2023-07-30T12:12:16;4.78;;;4.38;;
36391;SDS011;22639;42.690;23.356;2023-07-30T12:14:45;5.00;;;4.50;;
36391;SDS011;22639;42.690;23.356;2023-07-30T12:17:17;4.47;;;4.10;;
36391;SDS011;22639;42.690;23.356;2023-07-30T12:19:42;4.57;;;4.18;;
36391;SDS011;22639;42.690;23.356;2023-07-30T12:22:08;4.82;;;4.35;;
36391;SDS011;22639;42.690;23.356;2023-07-30T12:24:33;5.30;;;4.80;;
36391;SDS011;22639;42.690;23.356;2023-07-30T12:26:58;4.97;;;4.57;;
36391;SDS011;22639;42.690;23.356;2023-07-30T12:29:24;4.65;;;4.18;;
36391;SDS011;22639;42.690;23.356;2023-07-30T12:31:49;4.95;;;4.55;;
36391;SDS011;22639;42.690;23.356;2023-07-30T12:34:18;4.88;;;4.43;;
36391;SDS011;22639;42.690;23.356;2023-07-30T12:36:43;4.53;;;4.13;;
36391;SDS011;22639;42.690;23.356;2023-07-30T12:39:09;4.50;;;4.10;;
36391;SDS011;22639;42.690;23.356;2023-07-30T12:41:34;5.15;;;4.47;;
36391;SDS011;22639;42.690;23.356;2023-07-30T12:43:59;5.00;;;4.60;;
36391;SDS011;22639;42.690;23.356;2023-07-30T12:46:24;5.10;;;4.70;;
36391;SDS011;22639;42.690;23.356;2023-07-30T12:48:52;5.05;;;4.60;;
36391;SDS011;22639;42.690;23.356;2023-07-30T12:51:17;5.20;;;4.70;;
36391;SDS011;22639;42.690;23.356;2023-07-30T12:53:43;4.85;;;4.45;;
36391;SDS011;22639;42.690;23.356;2023-07-30T12:56:08;4.65;;;4.25;;
36391;SDS011;22639;42.690;23.356;2023-07-30T12:58:33;5.28;;;4.85;;
36391;SDS011;22639;42.690;23.356;2023-07-30T13:00:58;5.53;;;4.80;;
36391;SDS011;22639;42.690;23.356;2023-07-30T13:03:24;4.65;;;4.25;;
36391;SDS011;22639;42.690;23.356;2023-07-30T13:05:49;4.60;;;4.30;;
36391;SDS011;22639;42.690;23.356;2023-07-30T13:08:14;5.75;;;4.53;;
36391;SDS011;22639;42.690;23.356;2023-07-30T13:10:39;5.15;;;4.43;;
36391;SDS011;22639;42.690;23.356;2023-07-30T13:13:05;5.53;;;5.13;;
36391;SDS011;22639;42.690;23.356;2023-07-30T13:15:30;5.72;;;5.22;;
36391;SDS011;22639;42.690;23.356;2023-07-30T13:17:55;5.20;;;4.70;;
36391;SDS011;22639;42.690;23.356;2023-07-30T13:20:20;4.78;;;4.38;;
36391;SDS011;22639;42.690;23.356;2023-07-30T13:22:46;4.82;;;4.40;;
36391;SDS011;22639;42.690;23.356;2023-07-30T13:25:11;4.60;;;4.20;;
36391;SDS011;22639;42.690;23.356;2023-07-30T13:27:36;5.38;;;4.95;;
36391;SDS011;22639;42.690;23.356;2023-07-30T13:30:01;5.32;;;4.88;;
36391;SDS011;22639;42.690;23.356;2023-07-30T13:32:27;4.97;;;4.57;;
36391;SDS011;22639;42.690;23.356;2023-07-30T13:34:52;5.25;;;4.85;;
36391;SDS011;22639;42.690;23.356;2023-07-30T13:37:18;5.65;;;4.85;;
36391;SDS011;22639;42.690;23.356;2023-07-30T13:39:43;4.50;;;4.10;;
36391;SDS011;22639;42.690;23.356;2023-07-30T13:42:08;4.70;;;4.30;;
36391;SDS011;22639;42.690;23.356;2023-07-30T13:44:33;6.28;;;4.88;;
36391;SDS011;22639;42.690;23.356;2023-07-30T13:46:59;4.47;;;4.07;;
36391;SDS011;22639;42.690;23.356;2023-07-30T13:49:24;5.13;;;4.70;;
36391;SDS011;22639;42.690;23.356;2023-07-30T13:51:49;4.60;;;4.10;;
36391;SDS011;22639;42.690;23.356;2023-07-30T13:54:15;5.18;;;4.78;;
36391;SDS011;22639;42.690;23.356;2023-07-30T13:56:40;6.50;;;4.30;;
36391;SDS011;22639;42.690;23.356;2023-07-30T13:59:05;4.43;;;4.03;;
36391;SDS011;22639;42.690;23.356;2023-07-30T14:01:31;5.82;;;4.95;;
36391;SDS011;22639;42.690;23.356;2023-07-30T14:03:56;5.00;;;4.60;;
36391;SDS011;22639;42.690;23.356;2023-07-30T14:06:22;4.38;;;3.90;;
36391;SDS011;22639;42.690;23.356;2023-07-30T14:08:47;4.65;;;4.25;;
36391;SDS011;22639;42.690;23.356;2023-07-30T14:11:13;5.43;;;4.93;;
36391;SDS011;22639;42.690;23.356;2023-07-30T14:13:38;5.20;;;4.57;;
36391;SDS011;22639;42.690;23.356;2023-07-30T14:16:03;4.60;;;4.30;;
36391;SDS011;22639;42.690;23.356;2023-07-30T14:18:29;5.13;;;4.63;;
36391;SDS011;22639;42.690;23.356;2023-07-30T14:20:54;5.20;;;4.70;;
36391;SDS011;22639;42.690;23.356;2023-07-30T14:23:19;5.05;;;4.55;;
36391;SDS011;22639;42.690;23.356;2023-07-30T14:25:44;5.03;;;4.63;;
36391;SDS011;22639;42.690;23.356;2023-07-30T14:28:10;5.18;;;4.68;;
36391;SDS011;22639;42.690;23.356;2023-07-30T14:30:35;4.88;;;4.47;;
36391;SDS011;22639;42.690;23.356;2023-07-30T14:33:01;6.22;;;4.75;;